Time;durP1;ratioP1;P1;durP2;ratioP2;P2;SDS_P1;SDS_P2;PMS_P1;PMS_P2;Temp;Humidity;BMP_temperature;BMP_pressure;BME280_temperature;BME280_humidity;BME280_pressure;Samples;Min_cycle;Max_cycle;Signal;HPM_P1;HPM_P2
2024/02/18 00:01:20;;;;;;;1.60;1.20;;;10.50;98.20;;;;;;6175802;23;20514;-86
2024/02/18 00:03:47;;;;;;;1.60;1.10;;;10.50;98.20;;;;;;6193179;23;20499;-86
2024/02/18 00:06:14;;;;;;;1.60;1.10;;;10.50;98.20;;;;;;6176752;23;20444;-87
2024/02/18 00:08:43;;;;;;;1.60;1.10;;;10.50;98.20;;;;;;6195850;23;20650;-86
2024/02/18 00:11:12;;;;;;;1.60;1.10;;;10.60;98.20;;;;;;6171572;23;20450;-86
2024/02/18 00:13:42;;;;;;;1.53;1.10;;;10.60;98.20;;;;;;6214622;23;20450;-86
2024/02/18 00:16:10;;;;;;;1.60;1.10;;;10.60;98.20;;;;;;6197514;23;20887;-86
2024/02/18 00:18:37;;;;;;;1.60;1.20;;;10.60;98.20;;;;;;6182063;23;20444;-86
2024/02/18 00:21:04;;;;;;;1.60;1.20;;;10.60;98.20;;;;;;6178162;23;20424;-88
2024/02/18 00:23:31;;;;;;;1.60;1.20;;;10.60;98.20;;;;;;6180852;23;20467;-86
2024/02/18 00:25:59;;;;;;;1.57;1.10;;;10.70;98.20;;;;;;6178649;23;20419;-87
2024/02/18 00:28:27;;;;;;;1.57;1.00;;;10.70;98.20;;;;;;6193706;23;20443;-86
2024/02/18 00:30:54;;;;;;;1.57;1.00;;;10.70;98.20;;;;;;6179702;23;20511;-86
2024/02/18 00:33:26;;;;;;;1.50;1.10;;;10.70;98.20;;;;;;6181452;23;20412;-87
2024/02/18 00:35:54;;;;;;;1.70;1.43;;;10.70;98.20;;;;;;6177824;23;20424;-87
2024/02/18 00:38:21;;;;;;;1.57;1.10;;;10.70;98.20;;;;;;6188646;23;20436;-86
2024/02/18 00:40:54;;;;;;;1.60;1.23;;;10.70;98.20;;;;;;6180717;23;20424;-87
2024/02/18 00:43:21;;;;;;;1.60;1.10;;;10.70;98.20;;;;;;6179844;23;20822;-86
2024/02/18 00:45:49;;;;;;;1.60;1.10;;;10.70;98.20;;;;;;6184415;23;20412;-87
2024/02/18 00:48:17;;;;;;;1.60;1.10;;;10.60;98.20;;;;;;6176912;23;20471;-86
2024/02/18 00:50:47;;;;;;;1.53;1.10;;;10.60;98.20;;;;;;6192921;23;20412;-86
2024/02/18 00:53:30;;;;;;;1.60;1.20;;;10.60;98.20;;;;;;6142057;23;20495;-86
2024/02/18 00:56:00;;;;;;;1.57;1.20;;;10.60;98.20;;;;;;6179274;23;20419;-87
2024/02/18 00:58:27;;;;;;;1.60;1.20;;;10.60;98.20;;;;;;6195051;23;20439;-86
2024/02/18 01:04:01;;;;;;;1.53;1.10;;;10.60;98.20;;;;;;6190464;23;20448;-85
2024/02/18 01:06:29;;;;;;;1.60;1.20;;;10.60;98.20;;;;;;6175545;23;20737;-86
2024/02/18 01:09:19;;;;;;;1.60;1.10;;;10.60;98.20;;;;;;6192433;23;20446;-86
2024/02/18 01:11:57;;;;;;;1.60;1.10;;;10.60;98.20;;;;;;6148376;23;20509;-86
2024/02/18 01:14:36;;;;;;;1.60;1.20;;;10.60;98.20;;;;;;6192224;23;20415;-88
2024/02/18 01:17:05;;;;;;;1.60;1.20;;;10.60;98.20;;;;;;6174822;23;20787;-85
2024/02/18 01:19:38;;;;;;;1.60;1.17;;;10.50;98.20;;;;;;6192426;23;21087;-86
2024/02/18 01:22:16;;;;;;;1.60;1.10;;;10.50;98.20;;;;;;6174379;23;20645;-86
2024/02/18 01:24:47;;;;;;;1.60;1.10;;;10.50;98.20;;;;;;6195792;23;21034;-85
2024/02/18 01:27:19;;;;;;;1.60;1.10;;;10.50;98.20;;;;;;6174404;23;20542;-86
2024/02/18 01:29:55;;;;;;;1.60;1.20;;;10.50;98.20;;;;;;6195177;23;20423;-86
2024/02/18 01:32:32;;;;;;;1.60;1.20;;;10.50;98.20;;;;;;6173210;23;20534;-87
2024/02/18 01:35:13;;;;;;;1.60;1.10;;;10.50;98.20;;;;;;6199383;23;20396;-87
2024/02/18 01:37:40;;;;;;;1.60;1.10;;;10.50;98.20;;;;;;6176443;23;20471;-86
2024/02/18 01:40:12;;;;;;;2.63;1.97;;;10.40;98.20;;;;;;6187669;23;20420;-87
2024/02/18 01:42:42;;;;;;;1.60;1.13;;;10.40;98.20;;;;;;6167508;23;20447;-86
2024/02/18 01:45:15;;;;;;;1.60;1.10;;;10.40;98.20;;;;;;6194344;23;20424;-87
2024/02/18 01:47:44;;;;;;;1.60;1.10;;;10.40;98.20;;;;;;6172981;23;20861;-86
2024/02/18 01:50:22;;;;;;;1.60;1.20;;;10.40;98.20;;;;;;6194414;23;20905;-86
2024/02/18 01:52:55;;;;;;;3.60;2.93;;;10.40;98.20;;;;;;6169289;23;20483;-86
2024/02/18 01:55:38;;;;;;;1.53;1.10;;;10.40;98.20;;;;;;6195383;23;20431;-86
2024/02/18 01:58:11;;;;;;;1.50;1.10;;;10.40;98.20;;;;;;6170073;23;20514;-86
2024/02/18 02:01:00;;;;;;;1.60;1.20;;;10.40;98.20;;;;;;6197588;23;20447;-87
2024/02/18 02:03:30;;;;;;;1.60;1.20;;;10.40;98.20;;;;;;6145871;23;20976;-86
2024/02/18 02:06:01;;;;;;;1.60;1.30;;;10.40;98.20;;;;;;6181132;23;20422;-87
2024/02/18 02:08:28;;;;;;;1.60;1.10;;;10.40;98.20;;;;;;6193443;23;20473;-86
2024/02/18 02:10:58;;;;;;;1.50;1.10;;;10.40;98.20;;;;;;6179804;23;20416;-87
2024/02/18 02:13:26;;;;;;;1.57;1.10;;;10.40;98.20;;;;;;6193166;23;20440;-86
2024/02/18 02:15:53;;;;;;;1.53;1.10;;;10.30;98.20;;;;;;6169166;23;20396;-86
2024/02/18 02:18:20;;;;;;;1.60;1.30;;;10.30;98.20;;;;;;6193897;23;20443;-86
2024/02/18 02:21:09;;;;;;;1.60;1.20;;;10.30;98.20;;;;;;6196473;23;20420;-86
2024/02/18 02:26:53;;;;;;;1.60;1.30;;;10.20;98.20;;;;;;6174060;23;20527;-88
2024/02/18 02:29:30;;;;;;;1.60;1.10;;;10.10;98.20;;;;;;6195252;23;20470;-86
2024/02/18 02:32:54;;;;;;;;;;;;;;;;;;;;;
2024/02/18 02:35:37;;;;;;;2.47;2.27;;;10.00;98.20;;;;;;6216862;23;20419;-86
2024/02/18 02:38:28;;;;;;;1.60;1.30;;;10.00;98.20;;;;;;6172897;23;20490;-86
2024/02/18 02:41:04;;;;;;;2.00;1.70;;;10.00;98.20;;;;;;6183059;23;20420;-90
2024/02/18 02:43:32;;;;;;;1.53;1.10;;;10.00;98.20;;;;;;6198058;23;20443;-86
2024/02/18 02:46:11;;;;;;;17.30;2.03;;;10.00;98.20;;;;;;6182555;23;20447;-86
2024/02/18 02:48:41;;;;;;;1.60;1.23;;;10.00;98.20;;;;;;6198816;23;20454;-87
2024/02/18 02:51:22;;;;;;;1.60;1.20;;;10.00;98.20;;;;;;6183739;23;20670;-88
2024/02/18 02:53:49;;;;;;;1.60;1.10;;;10.00;98.20;;;;;;6197722;23;20482;-87
2024/02/18 02:56:27;;;;;;;1.60;1.20;;;10.00;98.20;;;;;;6179237;23;20443;-88
2024/02/18 02:59:07;;;;;;;1.60;1.30;;;10.00;98.20;;;;;;6199037;23;20483;-85
2024/02/18 03:01:48;;;;;;;1.60;1.20;;;10.00;98.20;;;;;;6179308;23;20454;-87
2024/02/18 03:04:34;;;;;;;1.60;1.10;;;9.90;98.20;;;;;;6196435;23;20535;-87
2024/02/18 03:07:07;;;;;;;1.70;1.40;;;9.90;98.20;;;;;;6177186;23;20443;-88
2024/02/18 03:09:43;;;;;;;1.57;1.10;;;9.90;98.20;;;;;;6200061;23;20451;-88
2024/02/18 03:12:10;;;;;;;1.60;1.17;;;9.90;98.20;;;;;;6178153;23;20447;-89
2024/02/18 03:14:40;;;;;;;1.60;1.30;;;9.90;98.20;;;;;;6199360;23;20420;-87
2024/02/18 03:17:19;;;;;;;1.53;1.10;;;9.90;98.20;;;;;;6180980;23;20519;-86
2024/02/18 03:19:56;;;;;;;1.57;1.10;;;9.80;98.20;;;;;;6200178;23;20448;-88
2024/02/18 03:22:35;;;;;;;1.60;1.10;;;9.80;98.20;;;;;;6175204;23;20539;-87
2024/02/18 03:25:10;;;;;;;5.20;4.70;;;9.80;98.20;;;;;;6199771;23;20794;-88
2024/02/18 03:27:38;;;;;;;1.57;1.20;;;9.80;98.20;;;;;;6175979;23;20451;-87
2024/02/18 03:30:11;;;;;;;1.60;1.20;;;9.80;98.20;;;;;;6199072;23;20428;-88
2024/02/18 03:32:39;;;;;;;1.60;1.10;;;9.80;98.20;;;;;;6176093;23;20458;-87
2024/02/18 03:35:07;;;;;;;2.33;1.83;;;9.80;98.20;;;;;;6200410;23;20412;-88
2024/02/18 03:37:53;;;;;;;1.60;1.10;;;9.70;98.20;;;;;;6173997;23;20451;-87
2024/02/18 03:40:30;;;;;;;1.60;1.10;;;9.70;98.20;;;;;;6198314;23;20416;-88
2024/02/18 03:42:57;;;;;;;1.60;1.20;;;9.70;98.20;;;;;;6175784;23;20767;-87
2024/02/18 03:45:32;;;;;;;1.60;1.20;;;9.70;98.20;;;;;;6199882;23;20527;-86
2024/02/18 03:48:03;;;;;;;1.60;1.10;;;9.70;98.20;;;;;;6174055;23;20455;-87
2024/02/18 03:50:31;;;;;;;1.60;1.30;;;9.60;98.20;;;;;;6199235;23;20426;-87
2024/02/18 03:52:58;;;;;;;1.60;1.20;;;9.60;98.20;;;;;;6173620;23;21269;-86
2024/02/18 03:55:26;;;;;;;1.53;1.10;;;9.60;98.20;;;;;;6199769;23;20481;-88
2024/02/18 03:57:55;;;;;;;1.57;1.10;;;9.60;98.20;;;;;;6173652;23;20475;-87
2024/02/18 04:00:22;;;;;;;1.60;1.10;;;9.60;98.20;;;;;;6198448;23;20420;-88
2024/02/18 04:02:50;;;;;;;1.60;1.20;;;9.50;98.20;;;;;;6173488;23;20636;-86
2024/02/18 04:05:19;;;;;;;1.60;1.20;;;9.50;98.20;;;;;;6198486;23;20502;-86
2024/02/18 04:08:20;;;;;;;1.60;1.30;;;9.50;98.20;;;;;;6175722;23;20886;-87
2024/02/18 04:10:48;;;;;;;1.60;1.10;;;9.40;98.20;;;;;;6159628;23;20419;-86
2024/02/18 04:13:18;;;;;;;1.60;1.17;;;9.40;98.20;;;;;;6188409;23;20431;-86
2024/02/18 04:15:46;;;;;;;1.60;1.20;;;9.40;98.20;;;;;;6195607;23;20420;-85
2024/02/18 04:18:13;;;;;;;1.60;1.10;;;9.40;98.20;;;;;;6146034;23;20432;-86
2024/02/18 04:20:41;;;;;;;1.60;1.30;;;9.40;98.20;;;;;;6195673;23;20419;-85
2024/02/18 04:23:09;;;;;;;1.60;1.20;;;9.40;98.20;;;;;;6173920;23;20475;-85
2024/02/18 04:25:37;;;;;;;1.60;1.20;;;9.30;98.20;;;;;;6194361;23;20443;-85
2024/02/18 04:28:08;;;;;;;1.60;1.10;;;9.30;98.20;;;;;;6171945;23;20452;-85
2024/02/18 04:30:35;;;;;;;1.60;1.20;;;9.30;98.20;;;;;;6197680;23;20430;-85
2024/02/18 04:33:15;;;;;;;1.60;1.20;;;9.30;98.20;;;;;;6171408;23;20459;-85
2024/02/18 04:35:50;;;;;;;1.60;1.10;;;9.30;98.20;;;;;;6198308;23;20434;-85
2024/02/18 04:38:17;;;;;;;1.60;1.13;;;9.20;98.20;;;;;;6144965;23;20509;-86
2024/02/18 04:40:54;;;;;;;;;;;;;;;;;;;;;
2024/02/18 04:43:25;;;;;;;1.60;1.20;;;9.20;98.20;;;;;;6149958;23;20465;-85
2024/02/18 04:45:52;;;;;;;1.60;1.10;;;9.20;98.20;;;;;;6169745;23;20447;-86
2024/02/18 04:48:19;;;;;;;1.60;1.20;;;9.20;98.20;;;;;;6197204;23;20440;-85
2024/02/18 04:50:52;;;;;;;1.60;1.10;;;9.20;98.20;;;;;;6196341;23;20466;-85
2024/02/18 04:53:21;;;;;;;3.23;3.03;;;9.20;98.20;;;;;;6150125;23;20442;-85
2024/02/18 04:55:57;;;;;;;1.60;1.10;;;9.20;98.20;;;;;;6199499;23;20818;-85
2024/02/18 04:58:38;;;;;;;2.90;2.70;;;9.20;98.20;;;;;;6190929;23;20447;-87
2024/02/18 05:01:28;;;;;;;1.60;1.20;;;9.20;98.20;;;;;;6185220;23;20422;-86
2024/02/18 05:04:15;;;;;;;1.60;1.20;;;9.20;98.20;;;;;;6201412;23;20423;-85
2024/02/18 05:07:10;;;;;;;1.60;1.20;;;9.20;98.20;;;;;;6184107;23;20447;-85
2024/02/18 05:09:58;;;;;;;1.60;1.27;;;9.20;98.20;;;;;;6198571;23;20477;-85
2024/02/18 05:12:45;;;;;;;1.60;1.23;;;9.30;98.20;;;;;;6177855;23;20448;-85
2024/02/18 05:15:14;;;;;;;1.60;1.20;;;9.30;98.20;;;;;;6200355;23;20494;-86
2024/02/18 05:17:50;;;;;;;1.60;1.20;;;9.30;98.20;;;;;;6178980;23;20455;-86
2024/02/18 05:20:23;;;;;;;1.60;1.20;;;9.30;98.20;;;;;;6199776;23;20418;-86
2024/02/18 05:23:19;;;;;;;1.60;1.20;;;9.30;98.20;;;;;;6175517;23;20436;-86
2024/02/18 05:25:49;;;;;;;1.60;1.20;;;9.30;98.20;;;;;;6201055;23;20535;-87
2024/02/18 05:28:22;;;;;;;1.60;1.10;;;9.30;98.20;;;;;;6189341;23;20494;-86
2024/02/18 05:30:52;;;;;;;1.60;1.20;;;9.30;98.20;;;;;;6185787;23;20408;-86
2024/02/18 05:33:33;;;;;;;1.60;1.10;;;9.30;98.20;;;;;;6199907;23;21027;-85
2024/02/18 05:36:08;;;;;;;1.60;1.20;;;9.30;98.20;;;;;;6183668;23;20411;-86
2024/02/18 05:38:50;;;;;;;1.60;1.10;;;9.30;98.20;;;;;;6200353;23;20497;-86
2024/02/18 05:41:29;;;;;;;1.60;1.20;;;9.30;98.20;;;;;;6185040;23;20439;-86
2024/02/18 05:44:10;;;;;;;1.60;1.20;;;9.30;98.20;;;;;;6199991;23;20423;-85
2024/02/18 05:46:46;;;;;;;1.60;1.10;;;9.30;98.20;;;;;;6179079;23;20450;-86
2024/02/18 05:49:31;;;;;;;1.60;1.10;;;9.30;98.20;;;;;;6196814;23;20439;-86
2024/02/18 05:52:44;;;;;;;1.60;1.10;;;9.40;98.20;;;;;;6162362;23;20441;-85
2024/02/18 05:55:28;;;;;;;1.60;1.10;;;9.30;98.20;;;;;;6198168;23;20411;-86
2024/02/18 05:57:55;;;;;;;1.60;1.20;;;9.30;98.20;;;;;;6173029;23;20880;-86
2024/02/18 06:00:25;;;;;;;1.60;1.10;;;9.30;98.20;;;;;;6197977;23;20416;-86
2024/02/18 06:02:51;;;;;;;2.20;1.77;;;9.30;98.20;;;;;;6174324;23;20459;-86
2024/02/18 06:05:29;;;;;;;1.60;1.20;;;9.30;98.20;;;;;;6199282;23;20507;-86
2024/02/18 06:08:04;;;;;;;1.60;1.10;;;9.30;98.20;;;;;;6174850;23;20451;-86
2024/02/18 06:10:44;;;;;;;1.60;1.20;;;9.30;98.20;;;;;;6200935;23;20472;-86
2024/02/18 06:13:12;;;;;;;1.60;1.17;;;9.30;98.20;;;;;;6172655;23;20448;-86
2024/02/18 06:15:45;;;;;;;1.60;1.10;;;9.30;98.20;;;;;;6198395;23;20424;-85
2024/02/18 06:18:15;;;;;;;1.60;1.10;;;9.30;98.20;;;;;;6150036;23;20463;-86
2024/02/18 06:20:42;;;;;;;1.60;1.20;;;9.20;98.20;;;;;;6201004;23;20436;-86
2024/02/18 06:23:09;;;;;;;1.60;1.20;;;9.20;98.20;;;;;;6175675;23;20514;-85
2024/02/18 06:25:38;;;;;;;1.60;1.20;;;9.20;98.20;;;;;;6201662;23;20846;-84
2024/02/18 06:28:09;;;;;;;1.60;1.20;;;9.20;98.20;;;;;;6176314;23;20452;-86
2024/02/18 06:30:42;;;;;;;1.60;1.10;;;9.30;98.20;;;;;;6203279;23;20450;-86
2024/02/18 06:33:12;;;;;;;1.60;1.20;;;9.30;98.20;;;;;;6174089;23;20451;-86
2024/02/18 06:35:39;;;;;;;1.60;1.20;;;9.30;98.20;;;;;;6191042;23;20470;-83
2024/02/18 06:38:06;;;;;;;1.60;1.40;;;9.30;98.20;;;;;;6167207;23;20458;-82
2024/02/18 06:40:33;;;;;;;1.60;1.10;;;9.30;98.20;;;;;;6190466;23;20416;-81
2024/02/18 06:43:01;;;;;;;1.70;1.50;;;9.30;98.20;;;;;;6170155;23;20452;-83
2024/02/18 06:45:27;;;;;;;1.77;1.67;;;9.30;98.20;;;;;;6183489;23;20454;-83
2024/02/18 06:47:54;;;;;;;1.50;1.10;;;9.30;98.20;;;;;;6170267;23;20452;-83
2024/02/18 06:50:21;;;;;;;4.43;4.13;;;9.30;98.20;;;;;;6186346;23;20502;-83
2024/02/18 06:52:48;;;;;;;1.60;1.10;;;9.30;98.20;;;;;;6168109;23;20718;-83
2024/02/18 06:55:18;;;;;;;1.60;1.10;;;9.30;98.20;;;;;;6188865;23;20496;-83
2024/02/18 06:57:45;;;;;;;1.60;1.10;;;9.40;98.20;;;;;;6171920;23;20479;-83
2024/02/18 07:00:16;;;;;;;1.57;1.20;;;9.40;98.20;;;;;;6185424;23;20431;-84
2024/02/18 07:02:43;;;;;;;1.60;1.17;;;9.40;98.20;;;;;;6169425;23;20475;-83
2024/02/18 07:05:11;;;;;;;1.57;1.10;;;9.50;98.20;;;;;;6185971;23;20539;-84
2024/02/18 07:07:38;;;;;;;1.60;1.20;;;9.50;98.20;;;;;;6169450;23;20456;-84
2024/02/18 07:10:06;;;;;;;1.57;1.10;;;9.60;98.20;;;;;;6185538;23;20850;-84
2024/02/18 07:12:33;;;;;;;1.60;1.20;;;9.60;98.20;;;;;;6175772;23;20451;-83
2024/02/18 07:15:00;;;;;;;1.57;1.20;;;9.60;98.20;;;;;;6195975;23;20495;-83
2024/02/18 07:17:28;;;;;;;1.60;1.13;;;9.60;98.20;;;;;;6173232;23;20454;-85
2024/02/18 07:19:55;;;;;;;1.60;1.10;;;9.60;98.20;;;;;;6184269;23;20431;-85
2024/02/18 07:22:23;;;;;;;1.60;1.20;;;9.70;98.20;;;;;;6169410;23;20721;-84
2024/02/18 07:24:50;;;;;;;4.07;3.67;;;9.70;98.20;;;;;;6185564;23;20420;-83
2024/02/18 07:27:17;;;;;;;1.60;1.20;;;9.70;98.20;;;;;;6167490;23;21028;-83
2024/02/18 07:29:44;;;;;;;1.60;1.23;;;9.70;98.20;;;;;;6183064;23;20499;-83
2024/02/18 07:32:12;;;;;;;1.60;1.20;;;9.70;98.20;;;;;;6170861;23;20448;-84
2024/02/18 07:34:40;;;;;;;1.53;1.10;;;9.70;98.20;;;;;;6192024;23;20912;-84
2024/02/18 07:37:07;;;;;;;1.70;1.40;;;9.70;98.20;;;;;;6168072;23;20538;-83
2024/02/18 07:39:34;;;;;;;1.60;1.20;;;9.70;98.20;;;;;;6192394;23;20471;-84
2024/02/18 07:42:01;;;;;;;1.60;1.17;;;9.70;98.20;;;;;;6174276;23;20512;-84
2024/02/18 07:44:27;;;;;;;1.57;1.10;;;9.70;98.20;;;;;;6185769;23;20523;-83
2024/02/18 07:46:57;;;;;;;3.50;3.20;;;9.60;98.20;;;;;;6162744;23;20452;-82
2024/02/18 07:49:24;;;;;;;1.57;1.10;;;9.60;98.20;;;;;;6175823;23;20432;-83
2024/02/18 07:51:52;;;;;;;1.60;1.13;;;9.70;98.20;;;;;;6163607;23;20455;-82
2024/02/18 07:54:19;;;;;;;1.57;1.20;;;9.70;98.20;;;;;;6175867;23;20424;-82
2024/02/18 07:56:47;;;;;;;1.57;1.10;;;9.70;98.20;;;;;;6161551;23;20459;-84
2024/02/18 07:59:16;;;;;;;1.60;1.20;;;9.70;98.20;;;;;;6176863;23;20989;-83
2024/02/18 08:01:44;;;;;;;1.60;1.23;;;9.70;98.20;;;;;;6168666;23;20457;-79
2024/02/18 08:04:11;;;;;;;1.57;1.13;;;9.70;98.20;;;;;;6176786;23;20424;-82
2024/02/18 08:06:38;;;;;;;1.57;1.10;;;9.70;98.20;;;;;;6160350;23;20448;-83
2024/02/18 08:09:07;;;;;;;1.53;1.10;;;9.70;98.20;;;;;;6176387;23;20436;-82
2024/02/18 08:11:34;;;;;;;1.60;1.20;;;9.70;98.20;;;;;;6168920;23;20483;-83
2024/02/18 08:14:01;;;;;;;1.53;1.10;;;9.70;98.20;;;;;;6177296;23;20420;-83
2024/02/18 08:16:28;;;;;;;1.60;1.20;;;9.70;98.20;;;;;;6163476;23;20444;-82
2024/02/18 08:18:56;;;;;;;1.57;1.10;;;9.70;98.20;;;;;;6175534;23;20450;-83
2024/02/18 08:21:23;;;;;;;1.60;1.20;;;9.70;98.20;;;;;;6160668;23;20448;-82
2024/02/18 08:23:52;;;;;;;1.57;1.20;;;9.70;98.20;;;;;;6176156;23;20435;-82
2024/02/18 08:26:25;;;;;;;1.53;1.10;;;9.70;98.20;;;;;;6163571;23;20535;-83
2024/02/18 08:28:52;;;;;;;1.60;1.20;;;9.70;98.20;;;;;;6178320;23;20440;-82
2024/02/18 08:31:21;;;;;;;1.60;1.20;;;9.70;98.20;;;;;;6160672;23;20556;-83
2024/02/18 08:33:49;;;;;;;1.77;1.67;;;9.70;98.20;;;;;;6186921;23;20651;-82
2024/02/18 08:36:16;;;;;;;1.53;1.10;;;9.70;98.20;;;;;;6164392;23;21157;-83
2024/02/18 08:38:43;;;;;;;1.57;1.10;;;9.70;98.20;;;;;;6188012;23;20519;-83
2024/02/18 08:41:18;;;;;;;1.60;1.10;;;9.70;98.20;;;;;;6172641;23;20467;-83
2024/02/18 08:43:52;;;;;;;1.60;1.20;;;9.70;98.20;;;;;;6188321;23;20539;-83
2024/02/18 08:46:52;;;;;;;1.60;1.20;;;9.70;98.20;;;;;;6160087;23;20590;-84
2024/02/18 08:49:19;;;;;;;1.60;1.20;;;9.70;98.20;;;;;;6174837;23;20835;-84
2024/02/18 08:51:46;;;;;;;1.60;1.20;;;9.80;98.20;;;;;;6163937;23;21123;-83
2024/02/18 08:54:13;;;;;;;1.60;1.20;;;9.80;98.20;;;;;;6178429;23;20451;-83
2024/02/18 08:56:40;;;;;;;1.60;1.10;;;9.70;98.20;;;;;;6163666;23;20478;-82
2024/02/18 08:59:08;;;;;;;1.57;1.10;;;9.80;98.20;;;;;;6178911;23;20435;-83
2024/02/18 09:01:35;;;;;;;1.53;1.10;;;9.80;98.20;;;;;;6172139;23;20531;-83
2024/02/18 09:04:02;;;;;;;3.13;2.93;;;9.80;98.20;;;;;;6178850;23;20470;-83
2024/02/18 09:06:30;;;;;;;1.60;1.20;;;9.80;98.20;;;;;;6171853;23;20444;-82
2024/02/18 09:08:56;;;;;;;1.60;1.10;;;9.90;98.20;;;;;;6179501;23;21003;-83
2024/02/18 09:11:24;;;;;;;1.57;1.10;;;9.90;98.20;;;;;;6165749;23;20455;-83
2024/02/18 09:13:51;;;;;;;1.60;1.20;;;9.90;98.20;;;;;;6180751;23;20475;-82
2024/02/18 09:16:19;;;;;;;1.60;1.10;;;10.00;98.20;;;;;;6164518;23;20843;-82
2024/02/18 09:18:46;;;;;;;1.60;1.33;;;10.00;98.20;;;;;;6188371;23;20443;-82
2024/02/18 09:21:13;;;;;;;1.60;1.20;;;10.00;98.20;;;;;;6164996;23;20474;-82
2024/02/18 09:23:40;;;;;;;1.60;1.10;;;10.00;98.20;;;;;;6189519;23;20431;-83
2024/02/18 09:26:10;;;;;;;1.57;1.10;;;10.00;98.20;;;;;;6167483;23;20458;-82
2024/02/18 09:28:37;;;;;;;1.60;1.10;;;10.00;98.20;;;;;;6191138;23;20447;-83
2024/02/18 09:31:07;;;;;;;1.53;1.10;;;10.10;98.20;;;;;;6177390;23;20474;-82
2024/02/18 09:33:35;;;;;;;1.60;1.10;;;10.10;98.20;;;;;;6189756;23;20515;-81
2024/02/18 09:36:06;;;;;;;1.57;1.10;;;10.10;98.20;;;;;;6189589;23;20404;-81
2024/02/18 09:38:33;;;;;;;1.57;1.10;;;10.10;98.20;;;;;;6195801;23;20443;-81
2024/02/18 09:41:03;;;;;;;1.60;1.10;;;10.10;98.20;;;;;;6176819;23;20426;-82
2024/02/18 09:43:41;;;;;;;1.60;1.20;;;10.10;98.20;;;;;;6183099;23;20419;-82
2024/02/18 09:46:09;;;;;;;1.60;1.10;;;10.10;98.20;;;;;;6168743;23;20474;-81
2024/02/18 09:48:41;;;;;;;1.60;1.10;;;10.10;98.20;;;;;;6190185;23;20747;-82
2024/02/18 09:51:11;;;;;;;1.50;1.10;;;10.10;98.20;;;;;;6181899;23;20455;-82
2024/02/18 09:53:38;;;;;;;1.53;1.10;;;10.10;98.20;;;;;;6180916;23;20424;-82
2024/02/18 09:56:06;;;;;;;1.60;1.20;;;10.20;98.20;;;;;;6176981;23;20423;-82
2024/02/18 09:58:33;;;;;;;1.60;1.10;;;10.20;98.20;;;;;;6181853;23;20539;-82
2024/02/18 10:01:02;;;;;;;1.60;1.20;;;10.10;98.20;;;;;;6177277;23;20490;-83
2024/02/18 10:03:29;;;;;;;1.57;1.10;;;10.10;98.20;;;;;;6190686;23;20466;-82
2024/02/18 10:05:57;;;;;;;1.60;1.20;;;10.10;98.20;;;;;;6176640;23;20471;-82
2024/02/18 10:08:25;;;;;;;1.57;1.10;;;10.10;98.20;;;;;;6181303;23;20820;-83
2024/02/18 10:10:52;;;;;;;1.60;1.20;;;10.10;98.20;;;;;;6177064;23;20978;-83
2024/02/18 10:13:23;;;;;;;1.57;1.10;;;10.10;98.20;;;;;;6180437;23;20428;-83
2024/02/18 10:15:51;;;;;;;3.90;3.70;;;10.20;98.20;;;;;;6170850;23;20516;-84
2024/02/18 10:18:21;;;;;;;1.60;1.30;;;10.20;98.20;;;;;;6183861;23;20440;-83
2024/02/18 10:20:55;;;;;;;1.50;1.00;;;10.20;98.20;;;;;;6177648;23;20428;-84
2024/02/18 10:40:47;;;;;;;1.60;1.10;;;10.00;98.20;;;;;;6093379;23;20530;-82
2024/02/18 10:43:39;;;;;;;1.60;1.20;;;10.00;98.20;;;;;;6139766;23;20471;-82
2024/02/18 10:46:09;;;;;;;1.60;1.10;;;10.00;98.20;;;;;;6179547;23;20425;-82
2024/02/18 10:48:45;;;;;;;1.60;1.10;;;9.90;98.20;;;;;;6198234;23;20471;-82
2024/02/18 10:51:43;;;;;;;1.60;1.10;;;10.00;98.20;;;;;;6179375;23;20450;-84
2024/02/18 11:00:51;;;;;;;1.60;1.20;;;9.90;98.20;;;;;;6156339;23;20474;-84
2024/02/18 11:03:32;;;;;;;1.60;1.20;;;9.90;98.20;;;;;;6141566;23;20436;-83
2024/02/18 11:06:44;;;;;;;;;;;;;;;;;;;;;
2024/02/18 11:39:45;;;;;;;1.60;1.30;;;9.60;98.20;;;;;;6214219;22;20553;-84
2024/02/18 11:42:45;;;;;;;1.53;1.10;;;9.60;98.20;;;;;;6183302;23;20452;-83
2024/02/18 11:45:14;;;;;;;1.60;1.20;;;9.50;98.20;;;;;;6225977;23;20423;-83
2024/02/18 12:55:14;;;;;;;1.60;1.20;;;9.10;98.20;;;;;;6212617;22;20450;-85
2024/02/18 12:57:53;;;;;;;1.57;1.10;;;9.10;98.20;;;;;;6167130;23;20447;-82
2024/02/18 13:01:13;;;;;;;1.60;1.10;;;9.00;98.20;;;;;;6194649;23;20794;-85
2024/02/18 13:31:54;;;;;;;1.60;1.20;;;9.10;98.20;;;;;;6185802;22;20459;-83
2024/02/18 13:37:09;;;;;;;1.60;1.20;;;9.10;98.20;;;;;;6177816;23;20720;-83
2024/02/18 13:39:41;;;;;;;3.40;1.80;;;9.10;98.20;;;;;;6188070;23;20440;-83
2024/02/18 13:42:26;;;;;;;1.60;1.20;;;9.10;98.20;;;;;;6150931;23;20523;-84
2024/02/18 13:45:37;;;;;;;1.70;1.40;;;9.10;98.20;;;;;;6114834;23;20855;-85
2024/02/18 13:48:07;;;;;;;1.60;1.10;;;9.10;98.20;;;;;;6142818;23;20535;-82
2024/02/18 13:50:34;;;;;;;1.60;1.17;;;9.20;98.20;;;;;;6184350;23;20503;-81
2024/02/18 13:53:03;;;;;;;1.60;1.10;;;9.10;98.20;;;;;;6143050;23;20453;-81
2024/02/18 13:55:30;;;;;;;1.60;1.20;;;9.10;98.20;;;;;;6194737;23;20420;-83
2024/02/18 13:57:57;;;;;;;1.60;1.20;;;9.10;98.20;;;;;;6144190;23;20455;-82
2024/02/18 14:00:27;;;;;;;1.60;1.10;;;9.10;98.20;;;;;;6184144;23;20416;-82
2024/02/18 14:03:00;;;;;;;1.60;1.10;;;9.10;98.20;;;;;;6140378;23;20457;-82
2024/02/18 14:05:30;;;;;;;1.60;1.20;;;9.00;98.20;;;;;;6196767;23;20426;-83
2024/02/18 14:07:57;;;;;;;1.60;1.40;;;9.10;98.20;;;;;;6146964;23;20460;-82
2024/02/18 14:10:26;;;;;;;1.60;1.20;;;9.00;98.20;;;;;;6196003;23;20408;-82
2024/02/18 14:13:01;;;;;;;1.60;1.30;;;9.00;98.20;;;;;;6146047;23;20456;-83
2024/02/18 14:15:33;;;;;;;1.60;1.10;;;9.00;98.20;;;;;;6211266;23;20472;-79
2024/02/18 14:21:36;;;;;;;1.60;1.30;;;9.00;98.20;;;;;;6162397;23;20420;-84
2024/02/18 14:51:22;;;;;;;1.57;1.10;;;8.90;98.20;;;;;;6198280;22;20521;-83
2024/02/18 14:57:12;;;;;;;1.60;1.20;;;8.90;98.20;;;;;;6133273;23;20452;-84
2024/02/18 14:59:51;;;;;;;1.60;1.10;;;9.00;98.20;;;;;;6155057;23;20555;-85
2024/02/18 15:02:30;;;;;;;1.60;1.23;;;9.00;98.20;;;;;;6123115;23;20445;-85
2024/02/18 15:05:21;;;;;;;1.60;1.20;;;9.00;98.20;;;;;;6158446;23;20437;-85
2024/02/18 15:07:58;;;;;;;1.60;1.10;;;9.00;98.20;;;;;;6123930;22;20490;-84
2024/02/18 15:11:26;;;;;;;1.60;1.20;;;9.00;98.20;;;;;;6190530;23;20434;-86
2024/02/18 15:13:57;;;;;;;1.60;1.30;;;9.10;98.20;;;;;;6079844;23;20463;-83
2024/02/18 15:16:30;;;;;;;1.60;1.10;;;9.20;98.20;;;;;;6173841;23;20440;-83
2024/02/18 15:18:59;;;;;;;1.57;1.10;;;9.30;98.20;;;;;;6189019;23;20447;-83
2024/02/18 15:21:29;;;;;;;1.60;1.20;;;9.30;98.20;;;;;;6171072;23;20513;-83
2024/02/18 15:23:57;;;;;;;1.60;1.13;;;9.30;98.20;;;;;;6189541;23;20849;-83
2024/02/18 15:26:25;;;;;;;1.60;1.20;;;9.40;98.20;;;;;;6171452;23;20443;-83
2024/02/18 15:28:52;;;;;;;1.57;1.20;;;9.40;98.20;;;;;;6188426;23;20479;-83
2024/02/18 15:31:19;;;;;;;1.60;1.30;;;9.50;98.20;;;;;;6170502;23;20443;-82
2024/02/18 15:33:46;;;;;;;1.60;1.10;;;9.50;98.20;;;;;;6177980;23;20412;-84
2024/02/18 15:36:16;;;;;;;1.60;1.37;;;9.50;98.20;;;;;;6172832;23;20610;-83
2024/02/18 15:38:46;;;;;;;1.60;1.10;;;9.60;98.20;;;;;;6185432;23;20466;-83
2024/02/18 15:41:15;;;;;;;1.60;1.30;;;9.70;98.20;;;;;;6163007;23;20483;-83
2024/02/18 15:43:43;;;;;;;1.60;1.10;;;9.80;98.20;;;;;;6176948;23;20428;-83
2024/02/18 15:46:26;;;;;;;1.57;1.10;;;9.90;98.20;;;;;;6172198;23;20447;-83
2024/02/18 15:48:53;;;;;;;1.60;1.20;;;10.00;98.20;;;;;;6171752;22;20459;-83
2024/02/18 15:51:20;;;;;;;1.60;1.20;;;10.10;98.20;;;;;;6161849;23;20471;-82
2024/02/18 15:53:47;;;;;;;1.60;1.20;;;10.20;98.20;;;;;;6187711;23;20483;-82
2024/02/18 15:56:52;;;;;;;1.60;1.10;;;10.20;98.20;;;;;;6172930;23;20511;-82
2024/02/18 15:59:19;;;;;;;1.60;1.10;;;10.30;98.20;;;;;;6189814;23;20436;-82
2024/02/18 16:01:48;;;;;;;1.60;1.10;;;10.40;98.20;;;;;;6162561;23;20450;-81
2024/02/18 16:04:36;;;;;;;1.60;1.30;;;10.40;98.20;;;;;;6180988;23;20412;-81
2024/02/18 16:07:06;;;;;;;1.60;1.10;;;10.50;98.20;;;;;;6171036;23;20443;-81
2024/02/18 16:09:33;;;;;;;1.60;1.20;;;10.60;98.20;;;;;;6181705;23;20715;-81
2024/02/18 16:12:02;;;;;;;1.57;1.00;;;10.60;98.20;;;;;;6162044;23;20452;-81
2024/02/18 16:14:36;;;;;;;1.60;1.27;;;10.70;98.20;;;;;;6186915;23;20420;-82
2024/02/18 16:17:03;;;;;;;1.57;1.10;;;10.70;98.20;;;;;;6165534;23;20447;-81
2024/02/18 16:19:30;;;;;;;1.53;1.10;;;10.70;98.20;;;;;;6178183;23;20436;-82
2024/02/18 16:21:57;;;;;;;1.50;1.10;;;10.70;98.20;;;;;;6166861;23;21014;-81
2024/02/18 16:24:24;;;;;;;1.50;1.10;;;10.70;98.20;;;;;;6176259;23;20500;-82
2024/02/18 16:26:51;;;;;;;1.60;1.10;;;10.70;98.20;;;;;;6161186;23;20448;-82
2024/02/18 16:29:20;;;;;;;1.60;1.10;;;10.80;98.20;;;;;;6191107;23;20466;-82
2024/02/18 16:31:47;;;;;;;1.60;1.10;;;10.80;98.20;;;;;;6170624;23;20459;-81
2024/02/18 16:34:15;;;;;;;1.60;1.10;;;10.80;98.20;;;;;;6202725;23;20492;-82
2024/02/18 16:36:45;;;;;;;1.60;1.20;;;10.80;98.20;;;;;;6183987;23;20448;-82